Huvudsida
METAR-TAF:

METAR-TAF

Flygplatser :

Gregorio Luperóns internationella flygplats

Puerto Plata, Dominikanska republiken

latitud: 19-45N, longitud: 070-33W, höjd: 15 m

Aktuellt väderrapport

Denna rapport gjordes för 24 minuter sedan, klockan 15:00 UTC
Vind 5 kt från ost
Temperatur 30°C
Fuktighet 70%
Tryck 1016 hPa
Sikt 10 km eller mer
Brutna moln på en höjd av 2000 ft

METAR: MDPP 261500Z 09005KT 9999 BKN020 30/24 Q1016

Tid: 11:24 (15:24 UTC)

Väderprognos

Denna rapport gjordes för 11 timmar och 24 minuter sedan, klockan 04:00 UTC
Prognos gäller från 26 kl. 06 UTC till 27 kl. 06 UTC
Vind kt från nord
Sikt 10 km eller mer
Spridda moln på en höjd av 1600 ft
Sannolikhet 30%
från 26 kl. 06 UTC till 26 kl. 12 UTC
Sikt: 7000 m
Få moln på en höjd av 1600 ft, Cumulonimbus.
Brutna moln på en höjd av 1600 ft
Spridda moln på en höjd av 7000 ft
åska, lätt regn

TAF: MDPP 260400Z 2606/2706 00000KT 9999 SCT016 PROB30 2606/2612 7000 -TSRA FEW016CB BKN016 SCT070

Aktuella väderrapporter och prognoser från 4000 flygplatser (METAR- och TAF-rapporter).

De tillgängliga stationerna syns som gula och röda prickar på kartan.

För musen över prickarna för att se namnen på stationerna.

Klicka sedan för att få väderrapporter och prognoser.

För att ändra kartan: Klicka på de gröna knapparna med ett svart kors på för att zooma in; den gröna knappen med ett streck på för att zooma ut; eller på de gröna pilarna för angränsande kartor.


METAR-TAF: